Time;durP1;ratioP1;P1;durP2;ratioP2;P2;SDS_P1;SDS_P2;PMS_P1;PMS_P2;Temp;Humidity;BMP_temperature;BMP_pressure;BME280_temperature;BME280_humidity;BME280_pressure;Samples;Min_cycle;Max_cycle;Signal;HPM_P1;HPM_P2
2024/01/23 00:01:35;;;;;;;4.28;0.63;;;;;;;-141.50;100.00;63355.56;4953610;28;20073;-84
2024/01/23 00:04:02;;;;;;;12.43;1.20;;;;;;;-141.50;100.00;63355.56;4961211;28;20075;-84
2024/01/23 00:06:29;;;;;;;4.78;0.80;;;;;;;-141.50;100.00;63355.56;4967789;28;20063;-85
2024/01/23 00:08:57;;;;;;;4.43;0.85;;;;;;;-141.50;100.00;63355.56;5012684;28;20449;-83
2024/01/23 00:11:24;;;;;;;9.27;1.67;;;;;;;-141.50;100.00;63355.56;4980446;28;20084;-84
2024/01/23 00:13:50;;;;;;;8.98;1.05;;;;;;;-141.50;100.00;63355.56;4993198;28;20540;-82
2024/01/23 00:16:17;;;;;;;4.28;1.15;;;;;;;-141.50;100.00;63355.56;5002839;28;20059;-83
2024/01/23 00:18:44;;;;;;;4.53;0.77;;;;;;;-141.50;100.00;63355.56;4967979;28;20117;-84
2024/01/23 00:21:11;;;;;;;7.85;1.02;;;;;;;-141.50;100.00;63355.56;4973545;28;20109;-81
2024/01/23 00:23:37;;;;;;;4.80;0.73;;;;;;;-141.50;100.00;63355.56;4962849;28;20050;-85
2024/01/23 00:26:07;;;;;;;6.97;1.02;;;;;;;-141.50;100.00;63355.56;4971964;28;20088;-81
2024/01/23 00:28:34;;;;;;;13.40;1.23;;;;;;;-141.50;100.00;63355.56;4999133;28;20057;-80
2024/01/23 00:31:01;;;;;;;6.20;1.10;;;;;;;-141.50;100.00;63355.56;4958258;28;20046;-81
2024/01/23 00:33:27;;;;;;;6.68;0.95;;;;;;;-141.50;100.00;63355.56;5032452;28;20424;-83
2024/01/23 00:35:54;;;;;;;11.45;1.15;;;;;;;-141.50;100.00;63355.56;4974148;28;20061;-81
2024/01/23 00:38:21;;;;;;;6.80;0.75;;;;;;;-141.50;100.00;63355.56;5051792;28;20063;-82
2024/01/23 00:40:48;;;;;;;7.78;1.20;;;;;;;-141.50;100.00;63355.56;4961009;28;20173;-81
2024/01/23 00:43:15;;;;;;;4.30;1.02;;;;;;;-141.50;100.00;63355.56;4991235;28;20145;-82
2024/01/23 00:45:41;;;;;;;7.30;1.00;;;;;;;-141.50;100.00;63355.56;4975409;28;20043;-82
2024/01/23 00:48:09;;;;;;;9.63;1.15;;;;;;;-141.50;100.00;63355.56;4963225;28;20058;-82
2024/01/23 00:50:35;;;;;;;10.18;1.45;;;;;;;-141.50;100.00;63355.56;4961098;28;20043;-83
2024/01/23 00:53:02;;;;;;;5.95;0.90;;;;;;;-141.50;100.00;63355.56;4965284;28;20061;-83
2024/01/23 00:55:29;;;;;;;14.65;1.30;;;;;;;-141.50;100.00;63355.56;5007558;28;20048;-82
2024/01/23 00:57:56;;;;;;;5.72;1.10;;;;;;;-141.50;100.00;63355.56;4998535;28;20069;-82
2024/01/23 01:00:23;;;;;;;3.63;1.13;;;;;;;-141.50;100.00;63355.56;4974989;28;20058;-82
2024/01/23 01:02:49;;;;;;;8.10;0.93;;;;;;;-141.50;100.00;63355.56;4969168;28;20497;-82
2024/01/23 01:05:16;;;;;;;3.58;1.08;;;;;;;-141.50;100.00;63355.56;5026126;28;20068;-82
2024/01/23 01:07:45;;;;;;;11.52;1.52;;;;;;;-141.50;100.00;63355.56;4975305;28;20563;-83
2024/01/23 01:10:12;;;;;;;5.22;0.90;;;;;;;-141.50;100.00;63355.56;4968507;28;20564;-83
2024/01/23 01:12:39;;;;;;;6.07;0.98;;;;;;;-141.50;100.00;63355.56;4964346;28;20071;-83
2024/01/23 01:15:06;;;;;;;11.10;1.23;;;;;;;-141.50;100.00;63355.56;4962053;28;20351;-82
2024/01/23 01:17:33;;;;;;;5.63;1.25;;;;;;;-141.50;100.00;63355.56;5007745;28;20047;-83
2024/01/23 01:20:00;;;;;;;4.68;0.90;;;;;;;-141.50;100.00;63355.56;4963355;28;20249;-83
2024/01/23 01:22:26;;;;;;;7.35;1.35;;;;;;;-141.50;100.00;63355.56;4964184;28;20047;-83
2024/01/23 01:24:53;;;;;;;12.10;1.92;;;;;;;-141.50;100.00;63355.56;4977539;28;20069;-84
2024/01/23 01:27:20;;;;;;;5.70;1.55;;;;;;;-141.50;100.00;63355.56;5038144;28;20108;-82
2024/01/23 01:29:47;;;;;;;8.95;1.08;;;;;;;-141.50;100.00;63355.56;5011908;28;20050;-82
2024/01/23 01:32:14;;;;;;;6.07;1.13;;;;;;;-141.50;100.00;63355.56;5002259;28;20123;-80
2024/01/23 01:34:41;;;;;;;10.45;1.30;;;;;;;-141.50;100.00;63355.56;5026524;28;20044;-80
2024/01/23 01:37:08;;;;;;;14.02;1.38;;;;;;;-141.50;100.00;63355.56;4997251;28;20049;-80
2024/01/23 01:39:35;;;;;;;11.25;1.48;;;;;;;-141.50;100.00;63355.56;4992046;28;20054;-83
2024/01/23 01:42:02;;;;;;;9.43;1.17;;;;;;;-141.50;100.00;63355.56;4961073;28;20061;-81
2024/01/23 01:44:32;;;;;;;5.55;1.00;;;;;;;-141.50;100.00;63355.56;4979180;28;20096;-81
2024/01/23 01:46:59;;;;;;;10.90;1.30;;;;;;;-141.50;100.00;63355.56;4999258;28;20079;-82
2024/01/23 01:49:26;;;;;;;9.00;1.08;;;;;;;-141.50;100.00;63355.56;4967435;28;20047;-82
2024/01/23 01:51:55;;;;;;;4.93;1.05;;;;;;;-141.50;100.00;63355.56;5007777;28;20047;-81
2024/01/23 01:54:22;;;;;;;8.10;0.95;;;;;;;-141.50;100.00;63355.56;4972305;28;20063;-81
2024/01/23 01:56:52;;;;;;;6.30;0.93;;;;;;;-141.50;100.00;63355.56;4983895;28;20562;-82
2024/01/23 01:59:20;;;;;;;8.23;0.85;;;;;;;-141.50;100.00;63355.56;4953655;28;20070;-81
2024/01/23 02:01:47;;;;;;;10.07;1.00;;;;;;;-141.50;100.00;63355.56;4960803;28;20100;-81
2024/01/23 02:04:15;;;;;;;7.00;1.00;;;;;;;-141.50;100.00;63355.56;4956182;28;20117;-84
2024/01/23 02:06:42;;;;;;;11.38;1.48;;;;;;;-141.50;100.00;63355.56;4979284;28;20620;-84
2024/01/23 02:09:10;;;;;;;7.43;1.02;;;;;;;-141.50;100.00;63355.56;4948439;28;20051;-83
2024/01/23 02:11:53;;;;;;;6.45;1.13;;;;;;;-141.50;100.00;63355.56;5025908;28;20512;-84
2024/01/23 02:14:25;;;;;;;8.43;1.20;;;;;;;-141.50;100.00;63355.56;4961555;28;20640;-85
2024/01/23 02:16:52;;;;;;;11.52;1.40;;;;;;;-141.50;100.00;63355.56;4981995;28;20110;-84
2024/01/23 02:19:19;;;;;;;8.25;1.02;;;;;;;-141.50;100.00;63355.56;4966099;28;20047;-86
2024/01/23 02:21:46;;;;;;;8.27;1.10;;;;;;;-141.50;100.00;63355.56;5038038;28;20047;-82
2024/01/23 02:24:12;;;;;;;9.00;1.05;;;;;;;-141.50;100.00;63355.56;4976270;28;20051;-83
2024/01/23 02:26:39;;;;;;;7.60;0.90;;;;;;;-141.50;100.00;63355.56;5057765;28;20037;-82
2024/01/23 02:29:06;;;;;;;7.65;1.27;;;;;;;-141.50;100.00;63355.56;5011171;28;20076;-80
2024/01/23 02:31:32;;;;;;;7.35;1.02;;;;;;;-141.50;100.00;63355.56;4989941;28;20541;-83
2024/01/23 02:33:59;;;;;;;8.32;1.33;;;;;;;-141.50;100.00;63355.56;4954221;28;20085;-83
2024/01/23 02:36:26;;;;;;;6.85;1.13;;;;;;;-141.50;100.00;63355.56;4993714;28;20049;-83
2024/01/23 02:38:53;;;;;;;7.50;1.40;;;;;;;-141.50;100.00;63355.56;5050137;28;20618;-82
2024/01/23 02:41:19;;;;;;;11.77;1.20;;;;;;;-141.50;100.00;63355.56;5016110;28;20143;-83
2024/01/23 02:43:46;;;;;;;9.15;1.13;;;;;;;-141.50;100.00;63355.56;5016707;28;20087;-82
2024/01/23 02:46:13;;;;;;;10.32;0.95;;;;;;;-141.50;100.00;63355.56;5052174;28;20056;-82
2024/01/23 02:48:39;;;;;;;8.07;0.90;;;;;;;-141.50;100.00;63355.56;4994265;28;20065;-82
2024/01/23 02:51:06;;;;;;;9.07;0.90;;;;;;;-141.50;100.00;63355.56;4986089;28;20078;-82
2024/01/23 02:53:35;;;;;;;10.15;1.23;;;;;;;-141.50;100.00;63355.56;5031641;28;20034;-83
2024/01/23 02:56:03;;;;;;;9.10;1.10;;;;;;;-141.50;100.00;63355.56;4977646;28;20051;-80
2024/01/23 02:58:30;;;;;;;5.18;1.02;;;;;;;-141.50;100.00;63355.56;4969087;28;20493;-82
2024/01/23 03:00:57;;;;;;;9.63;1.20;;;;;;;-141.50;100.00;63355.56;5037185;28;20458;-82
2024/01/23 03:03:24;;;;;;;6.88;1.48;;;;;;;-141.50;100.00;63355.56;5054827;28;20060;-81
2024/01/23 03:05:51;;;;;;;9.57;1.23;;;;;;;-141.50;100.00;63355.56;4978846;28;20570;-81
2024/01/23 03:08:21;;;;;;;7.22;1.00;;;;;;;-141.50;100.00;63355.56;5043972;28;20045;-81
2024/01/23 03:10:48;;;;;;;11.82;1.30;;;;;;;-141.50;100.00;63355.56;4990522;28;20418;-82
2024/01/23 03:13:15;;;;;;;8.43;1.20;;;;;;;-141.50;100.00;63355.56;4960161;28;20080;-79
2024/01/23 03:15:41;;;;;;;5.70;0.90;;;;;;;-141.50;100.00;63355.56;4969030;28;20040;-80
2024/01/23 03:18:11;;;;;;;5.60;1.02;;;;;;;-141.50;100.00;63355.56;5005015;28;20052;-83
2024/01/23 03:20:39;;;;;;;6.60;1.20;;;;;;;-141.50;100.00;63355.56;5020240;28;20110;-81
2024/01/23 03:23:08;;;;;;;7.18;1.20;;;;;;;-141.50;100.00;63355.56;5010815;28;20130;-79
2024/01/23 03:25:35;;;;;;;10.98;1.10;;;;;;;-141.50;100.00;63355.56;4959190;28;20058;-78
2024/01/23 03:28:02;;;;;;;9.95;1.13;;;;;;;-141.50;100.00;63355.56;4967183;28;20047;-78
2024/01/23 03:30:30;;;;;;;5.50;1.13;;;;;;;-141.50;100.00;63355.56;4966119;28;20043;-79
2024/01/23 03:32:57;;;;;;;6.43;1.30;;;;;;;-141.50;100.00;63355.56;4967400;28;20070;-77
2024/01/23 03:35:24;;;;;;;6.10;1.10;;;;;;;-141.50;100.00;63355.56;4953135;28;20048;-78
2024/01/23 03:37:52;;;;;;;12.80;1.60;;;;;;;-141.50;100.00;63355.56;4999833;28;20123;-79
2024/01/23 03:40:19;;;;;;;13.15;1.63;;;;;;;-141.50;100.00;63355.56;5034719;28;20113;-77
2024/01/23 03:43:17;;;;;;;10.45;1.20;;;;;;;-141.50;100.00;63355.56;4986670;28;20049;-78
2024/01/23 03:45:44;;;;;;;17.27;1.40;;;;;;;-141.50;100.00;63355.56;4993077;28;20065;-78
2024/01/23 03:48:11;;;;;;;11.25;1.48;;;;;;;-141.50;100.00;63355.56;5044569;28;20538;-78
2024/01/23 03:50:38;;;;;;;9.82;1.15;;;;;;;-141.50;100.00;63355.56;4963545;28;20048;-78
2024/01/23 03:53:05;;;;;;;5.78;0.98;;;;;;;-141.50;100.00;63355.56;4954068;28;20055;-79
2024/01/23 03:55:32;;;;;;;9.77;1.63;;;;;;;-141.50;100.00;63355.56;4962030;28;20097;-79
2024/01/23 03:57:58;;;;;;;7.53;1.17;;;;;;;-141.50;100.00;63355.56;5010921;28;20227;-79
2024/01/23 04:00:28;;;;;;;9.30;1.08;;;;;;;-141.50;100.00;63355.56;5043932;28;20148;-79
2024/01/23 04:02:55;;;;;;;9.55;1.45;;;;;;;-141.50;100.00;63355.56;4950637;28;20077;-78
2024/01/23 04:05:22;;;;;;;9.50;1.50;;;;;;;-141.50;100.00;63355.56;4951949;28;20082;-78
2024/01/23 04:07:49;;;;;;;7.80;1.40;;;;;;;-141.50;100.00;63355.56;4957949;28;20047;-78
2024/01/23 04:10:16;;;;;;;6.35;0.98;;;;;;;-141.50;100.00;63355.56;5013683;28;20070;-78
2024/01/23 04:12:42;;;;;;;10.15;1.00;;;;;;;-141.50;100.00;63355.56;4954652;28;20055;-78
2024/01/23 04:15:09;;;;;;;9.13;0.90;;;;;;;-141.50;100.00;63355.56;4953897;28;20127;-78
2024/01/23 04:17:41;;;;;;;7.40;0.77;;;;;;;-141.50;100.00;63355.56;4956330;28;20051;-78
2024/01/23 04:20:08;;;;;;;8.27;0.80;;;;;;;-141.50;100.00;63355.56;4949822;28;20055;-78
2024/01/23 04:22:36;;;;;;;2.88;0.70;;;;;;;-141.50;100.00;63355.56;4962383;28;20039;-79
2024/01/23 04:25:04;;;;;;;4.55;0.73;;;;;;;-141.50;100.00;63355.56;4945001;28;20095;-79
2024/01/23 04:27:31;;;;;;;10.05;0.93;;;;;;;-141.50;100.00;63355.56;4959296;28;20104;-78
2024/01/23 04:29:57;;;;;;;5.28;1.08;;;;;;;-141.50;100.00;63355.56;4961909;28;20063;-79
2024/01/23 04:32:24;;;;;;;4.30;0.60;;;;;;;-141.50;100.00;63355.56;4966315;28;20065;-77
2024/01/23 04:34:51;;;;;;;2.95;0.60;;;;;;;-141.50;100.00;63355.56;4946988;28;20065;-78
2024/01/23 04:37:18;;;;;;;5.05;0.55;;;;;;;-141.50;100.00;63355.56;4958569;28;20058;-81
2024/01/23 04:39:46;;;;;;;4.68;0.80;;;;;;;-141.50;100.00;63355.56;4959821;28;20059;-79
2024/01/23 04:42:13;;;;;;;3.70;0.60;;;;;;;-141.50;100.00;63355.56;4952221;28;20050;-78
2024/01/23 04:44:41;;;;;;;2.17;1.58;;;;;;;-141.50;100.00;63355.56;4987327;28;20459;-79
2024/01/23 04:47:08;;;;;;;6.47;0.82;;;;;;;-141.50;100.00;63355.56;4952344;28;20059;-80
2024/01/23 04:49:35;;;;;;;9.63;0.93;;;;;;;-141.50;100.00;63355.56;4992115;28;20058;-80
2024/01/23 04:52:01;;;;;;;6.38;0.80;;;;;;;-141.50;100.00;63355.56;5063275;28;20522;-80
2024/01/23 04:54:28;;;;;;;2.53;0.57;;;;;;;-141.50;100.00;63355.56;5003459;28;20126;-79
2024/01/23 04:56:55;;;;;;;7.13;0.98;;;;;;;-141.50;100.00;63355.56;4953688;28;20087;-81
2024/01/23 04:59:21;;;;;;;1.55;0.55;;;;;;;-141.50;100.00;63355.56;4968507;28;20069;-81
2024/01/23 05:01:48;;;;;;;3.97;0.70;;;;;;;-141.50;100.00;63355.56;4958520;28;20059;-81
2024/01/23 05:04:15;;;;;;;9.82;0.73;;;;;;;-141.50;100.00;63355.56;4997374;28;20079;-81
2024/01/23 05:06:43;;;;;;;3.10;0.95;;;;;;;-141.50;100.00;63355.56;5046623;28;20048;-81
2024/01/23 05:09:10;;;;;;;4.70;0.95;;;;;;;-141.50;100.00;63355.56;4968063;28;20062;-80
2024/01/23 05:11:36;;;;;;;1.10;0.38;;;;;;;-141.50;100.00;63355.56;4965440;28;20133;-81
2024/01/23 05:14:03;;;;;;;3.30;0.80;;;;;;;-141.50;100.00;63355.56;4965026;28;20059;-79
2024/01/23 05:16:30;;;;;;;2.08;0.63;;;;;;;-141.50;100.00;63355.56;4991740;28;20069;-80
2024/01/23 05:18:57;;;;;;;7.10;0.82;;;;;;;-141.50;100.00;63355.56;4979827;28;20142;-79
2024/01/23 05:21:24;;;;;;;3.08;0.45;;;;;;;-141.50;100.00;63355.56;4973189;28;20055;-79
2024/01/23 05:23:51;;;;;;;3.22;0.70;;;;;;;-141.50;100.00;63355.56;4971441;28;20760;-79
2024/01/23 05:26:18;;;;;;;4.68;0.40;;;;;;;-141.50;100.00;63355.56;4974467;28;20047;-80
2024/01/23 05:28:44;;;;;;;8.68;0.82;;;;;;;-141.50;100.00;63355.56;4979332;28;20122;-82
2024/01/23 05:31:11;;;;;;;6.63;0.70;;;;;;;-141.50;100.00;63355.56;4956450;28;20059;-83
2024/01/23 05:33:38;;;;;;;2.85;0.68;;;;;;;-141.50;100.00;63355.56;4969436;28;20043;-79
2024/01/23 05:36:06;;;;;;;0.75;0.30;;;;;;;-141.50;100.00;63355.56;4993013;28;20053;-79
2024/01/23 05:38:33;;;;;;;2.20;0.52;;;;;;;-141.50;100.00;63355.56;4955191;28;20129;-79
2024/01/23 05:41:00;;;;;;;2.97;0.50;;;;;;;-141.50;100.00;63355.56;4978330;28;20091;-79
2024/01/23 05:43:26;;;;;;;3.08;0.38;;;;;;;-141.50;100.00;63355.56;4990633;28;20042;-80
2024/01/23 05:45:53;;;;;;;4.57;0.60;;;;;;;-141.50;100.00;63355.56;4964010;28;20059;-82
2024/01/23 05:48:20;;;;;;;1.70;0.43;;;;;;;-141.50;100.00;63355.56;4983101;28;20064;-80
2024/01/23 05:50:47;;;;;;;3.50;0.82;;;;;;;-141.50;100.00;63355.56;4965050;28;20088;-80
2024/01/23 05:53:14;;;;;;;5.60;0.50;;;;;;;-141.50;100.00;63355.56;5012736;28;20083;-82
2024/01/23 05:55:40;;;;;;;3.50;0.60;;;;;;;-141.50;100.00;63355.56;4997089;28;20047;-81
2024/01/23 05:58:07;;;;;;;3.60;0.40;;;;;;;-141.50;100.00;63355.56;4959465;28;20055;-79
2024/01/23 06:00:34;;;;;;;2.35;0.43;;;;;;;-141.50;100.00;63355.56;4960009;28;20100;-81
2024/01/23 06:03:01;;;;;;;4.25;0.40;;;;;;;-141.50;100.00;63355.56;4955066;28;20141;-81
2024/01/23 06:05:27;;;;;;;5.82;0.63;;;;;;;-141.50;100.00;63355.56;4962558;28;20195;-80
2024/01/23 06:07:54;;;;;;;2.70;0.50;;;;;;;-141.50;100.00;63355.56;4983204;28;20051;-81
2024/01/23 06:10:21;;;;;;;1.65;0.40;;;;;;;-141.50;100.00;63355.56;4993909;28;20055;-81
2024/01/23 06:12:51;;;;;;;3.72;0.65;;;;;;;-141.50;100.00;63355.56;4953999;28;20056;-80
2024/01/23 06:15:18;;;;;;;3.00;0.77;;;;;;;-141.50;100.00;63355.56;4947144;28;20629;-79
2024/01/23 06:17:45;;;;;;;3.38;0.90;;;;;;;-141.50;100.00;63355.56;4947110;28;20552;-79
2024/01/23 06:20:14;;;;;;;2.05;0.60;;;;;;;-141.50;100.00;63355.56;4948099;28;20142;-81
2024/01/23 06:22:41;;;;;;;2.95;1.30;;;;;;;-141.50;100.00;63355.56;4947074;28;20130;-81
2024/01/23 06:25:14;;;;;;;1.25;0.40;;;;;;;-141.50;100.00;63355.56;4949698;28;20063;-81
2024/01/23 06:27:44;;;;;;;2.97;0.40;;;;;;;-141.50;100.00;63355.56;4947340;28;20078;-80
2024/01/23 06:30:13;;;;;;;4.90;0.40;;;;;;;-141.50;100.00;63355.56;4944085;28;20056;-80
2024/01/23 06:32:41;;;;;;;6.45;0.70;;;;;;;-141.50;100.00;63355.56;4945148;28;20497;-80
2024/01/23 06:35:09;;;;;;;1.10;0.40;;;;;;;-141.50;100.00;63355.56;4946455;28;20052;-81
2024/01/23 06:37:35;;;;;;;3.03;0.40;;;;;;;-141.50;100.00;63355.56;4950743;28;20111;-81
2024/01/23 06:40:02;;;;;;;3.45;0.55;;;;;;;-141.50;100.00;63355.56;4979396;28;20053;-79
2024/01/23 06:42:29;;;;;;;3.15;0.60;;;;;;;-141.50;100.00;63355.56;5055291;28;20037;-81
2024/01/23 06:44:56;;;;;;;4.70;0.47;;;;;;;-141.50;100.00;63355.56;4973265;28;20058;-81
2024/01/23 06:47:23;;;;;;;3.85;0.40;;;;;;;-141.50;100.00;63355.56;4960806;28;20552;-81
2024/01/23 06:49:50;;;;;;;6.45;0.45;;;;;;;-141.50;100.00;63355.56;5002742;28;20392;-80
2024/01/23 06:52:20;;;;;;;5.47;0.88;;;;;;;-141.50;100.00;63355.56;4962888;28;20162;-80
2024/01/23 06:54:46;;;;;;;3.15;0.50;;;;;;;-141.50;100.00;63355.56;4986773;28;20051;-79
2024/01/23 06:57:13;;;;;;;4.60;0.50;;;;;;;-141.50;100.00;63355.56;4987928;28;20079;-81
2024/01/23 06:59:40;;;;;;;3.08;0.73;;;;;;;-141.50;100.00;63355.56;4979608;28;20049;-82
2024/01/23 07:02:08;;;;;;;3.70;0.77;;;;;;;-141.50;100.00;63355.56;4966530;28;20493;-80
2024/01/23 07:04:34;;;;;;;4.65;0.68;;;;;;;-141.50;100.00;63355.56;4959564;28;20158;-81
2024/01/23 07:07:01;;;;;;;4.28;0.60;;;;;;;-141.50;100.00;63355.56;4981070;28;20055;-81
2024/01/23 07:09:28;;;;;;;1.58;0.63;;;;;;;-141.50;100.00;63355.56;4995263;28;20039;-81
2024/01/23 07:11:55;;;;;;;2.78;0.75;;;;;;;-141.50;100.00;63355.56;4971852;28;20073;-81
2024/01/23 07:14:22;;;;;;;3.00;0.68;;;;;;;-141.50;100.00;63355.56;4991205;28;20112;-80
2024/01/23 07:16:49;;;;;;;4.28;0.77;;;;;;;-141.50;100.00;63355.56;4989285;28;20048;-81
2024/01/23 07:19:16;;;;;;;3.67;0.80;;;;;;;-141.50;100.00;63355.56;4979200;28;20440;-81
2024/01/23 07:21:47;;;;;;;4.78;0.95;;;;;;;-141.50;100.00;63355.56;5005902;28;20078;-80
2024/01/23 07:24:14;;;;;;;5.57;1.10;;;;;;;-141.50;100.00;63355.56;4958944;28;20069;-81
2024/01/23 07:26:41;;;;;;;5.75;0.98;;;;;;;-141.50;100.00;63355.56;4960259;28;20462;-80
2024/01/23 07:29:07;;;;;;;4.25;1.10;;;;;;;-141.50;100.00;63355.56;4974975;28;20066;-82
2024/01/23 07:31:34;;;;;;;7.32;1.00;;;;;;;-141.50;100.00;63355.56;4961526;28;20047;-81
2024/01/23 07:34:01;;;;;;;8.68;0.80;;;;;;;-141.50;100.00;63355.56;4992618;28;20085;-80
2024/01/23 07:36:28;;;;;;;4.65;0.88;;;;;;;-141.50;100.00;63355.56;4941681;28;20142;-80
2024/01/23 07:38:54;;;;;;;5.25;0.93;;;;;;;-141.50;100.00;63355.56;4987428;28;20050;-81
2024/01/23 07:41:22;;;;;;;6.38;0.98;;;;;;;-141.50;100.00;63355.56;4956982;28;20601;-81
2024/01/23 07:43:49;;;;;;;5.43;1.27;;;;;;;-141.50;100.00;63355.56;4949850;28;20047;-79
2024/01/23 07:46:16;;;;;;;7.93;1.50;;;;;;;-141.50;100.00;63355.56;4978220;28;20061;-81
2024/01/23 07:48:43;;;;;;;4.55;1.10;;;;;;;-141.50;100.00;63355.56;4982950;28;20051;-80
2024/01/23 07:51:10;;;;;;;3.92;0.90;;;;;;;-141.50;100.00;63355.56;4987583;28;20067;-79
2024/01/23 07:53:37;;;;;;;3.80;0.95;;;;;;;-141.50;100.00;63355.56;4953080;28;20058;-79
2024/01/23 07:56:04;;;;;;;4.05;0.93;;;;;;;-141.50;100.00;63355.56;4942539;28;20055;-80
2024/01/23 07:58:31;;;;;;;5.78;1.17;;;;;;;-141.50;100.00;63355.56;4941332;28;20510;-80
2024/01/23 08:00:58;;;;;;;7.90;1.10;;;;;;;-141.50;100.00;63355.56;4940094;28;20051;-80
2024/01/23 08:03:25;;;;;;;5.45;0.90;;;;;;;-141.50;100.00;63355.56;4964580;28;20064;-80
2024/01/23 08:05:51;;;;;;;5.55;0.93;;;;;;;-141.50;100.00;63355.56;4944727;28;20054;-79
2024/01/23 08:08:19;;;;;;;6.60;1.05;;;;;;;-141.50;100.00;63355.56;4949900;28;20149;-80
2024/01/23 08:10:47;;;;;;;9.48;1.23;;;;;;;-141.50;100.00;63355.56;4983789;28;20081;-80
2024/01/23 08:13:14;;;;;;;6.65;1.42;;;;;;;-141.50;100.00;63355.56;4939825;28;20098;-80
2024/01/23 08:15:40;;;;;;;6.20;1.20;;;;;;;-141.50;100.00;63355.56;4969280;28;20051;-81
2024/01/23 08:18:08;;;;;;;7.38;1.23;;;;;;;-141.50;100.00;63355.56;4955713;28;20054;-81
2024/01/23 08:20:35;;;;;;;5.22;0.98;;;;;;;-141.50;100.00;63355.56;4969697;28;20089;-81
2024/01/23 08:23:02;;;;;;;10.77;1.27;;;;;;;-141.50;100.00;63355.56;4973183;28;20089;-81
2024/01/23 08:25:29;;;;;;;6.88;1.05;;;;;;;-141.50;100.00;63355.56;4997109;28;20051;-81
2024/01/23 08:27:55;;;;;;;5.75;0.88;;;;;;;-141.50;100.00;63355.56;4958533;28;20590;-81
2024/01/23 08:30:22;;;;;;;6.95;1.10;;;;;;;-141.50;100.00;63355.56;4952260;28;20059;-82
2024/01/23 08:32:49;;;;;;;3.42;0.88;;;;;;;-141.50;100.00;63355.56;4957005;28;20051;-82
2024/01/23 08:35:16;;;;;;;9.07;1.20;;;;;;;-141.50;100.00;63355.56;4979221;28;20573;-81
2024/01/23 08:37:43;;;;;;;8.77;1.30;;;;;;;-141.50;100.00;63355.56;4954839;28;20046;-81
2024/01/23 08:40:09;;;;;;;8.93;1.38;;;;;;;-141.50;100.00;63355.56;4981464;28;20064;-82
2024/01/23 08:42:36;;;;;;;7.05;1.88;;;;;;;-141.50;100.00;63355.56;5040365;28;20045;-80
2024/01/23 08:45:04;;;;;;;8.43;1.35;;;;;;;-141.50;100.00;63355.56;5033503;28;20090;-81
2024/01/23 08:47:31;;;;;;;8.75;1.40;;;;;;;-141.50;100.00;63355.56;4963462;28;20051;-82
2024/01/23 08:49:58;;;;;;;7.03;0.90;;;;;;;-141.50;100.00;63355.56;4987684;28;20055;-82
2024/01/23 08:52:25;;;;;;;8.25;1.20;;;;;;;-141.50;100.00;63355.56;4949808;28;20109;-82
2024/01/23 08:54:52;;;;;;;7.40;1.35;;;;;;;-141.50;100.00;63355.56;4953263;28;20051;-81
2024/01/23 08:57:20;;;;;;;8.07;1.23;;;;;;;-141.50;100.00;63355.56;5005519;28;20053;-82
2024/01/23 08:59:47;;;;;;;13.60;1.95;;;;;;;-141.50;100.00;63355.56;4971357;28;20098;-82
2024/01/23 09:02:14;;;;;;;7.15;1.10;;;;;;;-141.50;100.00;63355.56;5006531;28;20099;-81
2024/01/23 09:04:41;;;;;;;6.68;0.95;;;;;;;-141.50;100.00;63355.56;4961990;28;20516;-81
2024/01/23 09:07:07;;;;;;;7.45;1.35;;;;;;;-141.50;100.00;63355.56;4948590;28;20505;-79
2024/01/23 09:09:35;;;;;;;6.85;0.98;;;;;;;-141.50;100.00;63355.56;4946977;28;20425;-79
2024/01/23 09:12:02;;;;;;;6.20;1.30;;;;;;;-141.50;100.00;63355.56;4954652;28;20060;-81
2024/01/23 09:14:29;;;;;;;11.15;1.17;;;;;;;-141.50;100.00;63355.56;4953813;28;20047;-82
2024/01/23 09:16:56;;;;;;;10.57;2.03;;;;;;;-141.50;100.00;63355.56;4994223;28;20093;-83
2024/01/23 09:19:24;;;;;;;10.07;1.25;;;;;;;-141.50;100.00;63355.56;4970130;28;20054;-84
2024/01/23 09:21:51;;;;;;;4.72;1.50;;;;;;;-141.50;100.00;63355.56;4986417;28;20051;-84
2024/01/23 09:24:18;;;;;;;9.40;1.30;;;;;;;-141.50;100.00;63355.56;4966937;28;20118;-80
2024/01/23 09:26:44;;;;;;;3.75;1.27;;;;;;;-141.50;100.00;63355.56;5003902;28;20069;-79
2024/01/23 09:29:11;;;;;;;7.30;1.45;;;;;;;-141.50;100.00;63355.56;4967327;28;20062;-78
2024/01/23 09:31:45;;;;;;;7.22;1.58;;;;;;;-141.50;100.00;63355.56;4964806;28;20597;-79
2024/01/23 09:34:14;;;;;;;9.05;1.45;;;;;;;-141.50;100.00;63355.56;4959801;28;20059;-80
2024/01/23 09:36:55;;;;;;;9.55;1.10;;;;;;;-141.50;100.00;63355.56;5000300;28;20052;-81
2024/01/23 09:39:22;;;;;;;5.85;1.20;;;;;;;-141.50;100.00;63355.56;4962290;28;20141;-81
2024/01/23 09:41:54;;;;;;;5.70;0.93;;;;;;;-141.50;100.00;63355.56;4982094;28;20042;-78
2024/01/23 09:44:23;;;;;;;7.03;1.25;;;;;;;-141.50;100.00;63355.56;4959775;28;20050;-79
2024/01/23 09:46:54;;;;;;;9.60;1.77;;;;;;;-141.50;100.00;63355.56;4966010;28;20051;-78
2024/01/23 09:49:21;;;;;;;5.75;1.25;;;;;;;-141.50;100.00;63355.56;4977516;28;20074;-80
2024/01/23 09:51:49;;;;;;;11.18;1.50;;;;;;;-141.50;100.00;63355.56;4961564;28;20071;-80
2024/01/23 09:54:17;;;;;;;10.15;1.10;;;;;;;-141.50;100.00;63355.56;4980848;28;20150;-80
2024/01/23 09:56:44;;;;;;;11.40;1.40;;;;;;;-141.50;100.00;63355.56;5002548;28;20095;-82
2024/01/23 09:59:11;;;;;;;8.63;1.35;;;;;;;-141.50;100.00;63355.56;5038975;28;20086;-80
2024/01/23 10:01:38;;;;;;;13.55;1.65;;;;;;;-141.50;100.00;63355.56;5031757;28;20589;-80
2024/01/23 10:04:06;;;;;;;15.60;1.58;;;;;;;-141.50;100.00;63355.56;5060601;28;20126;-79
2024/01/23 10:06:33;;;;;;;12.90;1.70;;;;;;;-141.50;100.00;63355.56;4976906;28;20525;-80
2024/01/23 10:09:01;;;;;;;8.57;1.65;;;;;;;-141.50;100.00;63355.56;4958536;28;20067;-80
2024/01/23 10:11:28;;;;;;;6.18;1.73;;;;;;;-141.50;100.00;63355.56;5007856;28;20069;-79
2024/01/23 10:13:58;;;;;;;14.60;1.70;;;;;;;-141.50;100.00;63355.56;4979996;28;20049;-79
2024/01/23 10:16:26;;;;;;;11.90;1.60;;;;;;;-141.50;100.00;63355.56;4951422;28;20063;-78
2024/01/23 10:18:53;;;;;;;12.18;1.83;;;;;;;-141.50;100.00;63355.56;4958842;28;20047;-80
2024/01/23 10:21:21;;;;;;;6.72;1.00;;;;;;;-141.50;100.00;63355.56;4953557;28;20065;-79
2024/01/23 10:23:52;;;;;;;11.88;1.90;;;;;;;-141.50;100.00;63355.56;4959552;28;20061;-80
2024/01/23 10:26:20;;;;;;;10.95;1.63;;;;;;;-141.50;100.00;63355.56;4954052;28;20075;-80
2024/01/23 10:28:47;;;;;;;9.40;1.40;;;;;;;-141.50;100.00;63355.56;4960594;28;20051;-79
2024/01/23 10:31:14;;;;;;;9.75;1.15;;;;;;;-141.50;100.00;63355.56;4959788;28;20063;-79
2024/01/23 10:33:41;;;;;;;7.90;1.42;;;;;;;-141.50;100.00;63355.56;4997401;28;20041;-80
2024/01/23 10:36:08;;;;;;;8.60;1.15;;;;;;;-141.50;100.00;63355.56;4971963;28;20059;-79
2024/01/23 10:38:36;;;;;;;6.82;1.35;;;;;;;-141.50;100.00;63355.56;4959603;28;20042;-80
2024/01/23 10:41:04;;;;;;;8.50;1.33;;;;;;;-141.50;100.00;63355.56;4969567;28;22242;-80
2024/01/23 10:43:32;;;;;;;7.35;1.35;;;;;;;-141.50;100.00;63355.56;4989500;28;20043;-80
2024/01/23 10:46:02;;;;;;;7.20;1.50;;;;;;;-141.50;100.00;63355.56;4975279;28;20069;-82
2024/01/23 10:48:32;;;;;;;12.48;1.83;;;;;;;-141.50;100.00;63355.56;4961063;28;20053;-81
2024/01/23 10:51:10;;;;;;;11.18;1.95;;;;;;;-141.50;100.00;63355.56;4980526;28;20055;-79
2024/01/23 10:53:48;;;;;;;9.20;1.67;;;;;;;-141.50;100.00;63355.56;4966385;28;20078;-80
2024/01/23 10:56:17;;;;;;;13.77;1.90;;;;;;;-141.50;100.00;63355.56;4963276;28;20421;-81
2024/01/23 10:58:49;;;;;;;8.93;1.90;;;;;;;-141.50;100.00;63355.56;4990713;28;20042;-82
2024/01/23 11:01:18;;;;;;;9.50;1.58;;;;;;;-141.50;100.00;63355.56;5027483;28;20137;-79
2024/01/23 11:03:45;;;;;;;11.02;1.38;;;;;;;-141.50;100.00;63355.56;4962791;28;20055;-79
2024/01/23 11:06:22;;;;;;;3.83;1.35;;;;;;;-141.50;100.00;63355.56;4955537;28;20066;-80
2024/01/23 11:08:59;;;;;;;9.43;1.50;;;;;;;-141.50;100.00;63355.56;4967703;28;20043;-79